sensor_id;sensor_type;location;lat;lon;timestamp;temperature;humidity
5130;DHT22;2583;50.946;6.954;2022-09-17T00:01:13;11.50;99.90
5130;DHT22;2583;50.946;6.954;2022-09-17T00:03:42;11.50;99.90
5130;DHT22;2583;50.946;6.954;2022-09-17T00:06:11;11.50;99.90
5130;DHT22;2583;50.946;6.954;2022-09-17T00:08:40;11.50;99.90
5130;DHT22;2583;50.946;6.954;2022-09-17T00:11:09;11.50;99.90
5130;DHT22;2583;50.946;6.954;2022-09-17T00:13:36;11.50;99.90
5130;DHT22;2583;50.946;6.954;2022-09-17T00:16:03;11.50;99.90
5130;DHT22;2583;50.946;6.954;2022-09-17T00:18:31;11.50;99.90
5130;DHT22;2583;50.946;6.954;2022-09-17T00:20:57;11.60;99.90
5130;DHT22;2583;50.946;6.954;2022-09-17T00:23:24;11.70;99.90
5130;DHT22;2583;50.946;6.954;2022-09-17T00:25:51;11.60;99.90
5130;DHT22;2583;50.946;6.954;2022-09-17T00:28:18;11.60;99.90
5130;DHT22;2583;50.946;6.954;2022-09-17T00:30:45;11.60;99.90
5130;DHT22;2583;50.946;6.954;2022-09-17T00:33:16;11.70;99.90
5130;DHT22;2583;50.946;6.954;2022-09-17T00:35:43;11.70;99.90
5130;DHT22;2583;50.946;6.954;2022-09-17T00:38:10;11.60;99.90
5130;DHT22;2583;50.946;6.954;2022-09-17T00:40:37;11.70;99.90
5130;DHT22;2583;50.946;6.954;2022-09-17T00:43:09;11.70;99.90
5130;DHT22;2583;50.946;6.954;2022-09-17T00:45:37;11.70;99.90
5130;DHT22;2583;50.946;6.954;2022-09-17T00:48:05;11.80;99.90
5130;DHT22;2583;50.946;6.954;2022-09-17T00:50:34;11.80;99.90
5130;DHT22;2583;50.946;6.954;2022-09-17T00:53:11;11.70;99.90
5130;DHT22;2583;50.946;6.954;2022-09-17T00:55:42;11.70;99.90
5130;DHT22;2583;50.946;6.954;2022-09-17T00:58:11;11.70;99.90
5130;DHT22;2583;50.946;6.954;2022-09-17T01:00:38;11.70;99.90
5130;DHT22;2583;50.946;6.954;2022-09-17T01:03:06;11.80;99.90
5130;DHT22;2583;50.946;6.954;2022-09-17T01:16:55;11.60;99.90
5130;DHT22;2583;50.946;6.954;2022-09-17T01:20:00;11.60;99.90
5130;DHT22;2583;50.946;6.954;2022-09-17T01:31:00;11.60;99.90
5130;DHT22;2583;50.946;6.954;2022-09-17T01:36:57;11.60;99.90
5130;DHT22;2583;50.946;6.954;2022-09-17T01:39:55;11.60;99.90
5130;DHT22;2583;50.946;6.954;2022-09-17T01:45:11;11.60;99.90
5130;DHT22;2583;50.946;6.954;2022-09-17T01:47:50;11.60;99.90
5130;DHT22;2583;50.946;6.954;2022-09-17T01:50:24;11.60;99.90
5130;DHT22;2583;50.946;6.954;2022-09-17T01:52:54;11.60;99.90
5130;DHT22;2583;50.946;6.954;2022-09-17T01:55:25;11.60;99.90
5130;DHT22;2583;50.946;6.954;2022-09-17T01:58:02;11.60;99.90
5130;DHT22;2583;50.946;6.954;2022-09-17T02:00:30;11.50;99.90
5130;DHT22;2583;50.946;6.954;2022-09-17T02:03:07;11.50;99.90
5130;DHT22;2583;50.946;6.954;2022-09-17T02:08:10;11.50;99.90
5130;DHT22;2583;50.946;6.954;2022-09-17T02:10:43;11.50;99.90
5130;DHT22;2583;50.946;6.954;2022-09-17T02:13:24;11.50;99.90
5130;DHT22;2583;50.946;6.954;2022-09-17T02:16:05;11.50;99.90
5130;DHT22;2583;50.946;6.954;2022-09-17T02:18:38;11.50;99.90
5130;DHT22;2583;50.946;6.954;2022-09-17T02:24:23;11.50;99.90
5130;DHT22;2583;50.946;6.954;2022-09-17T02:26:59;11.50;99.90
5130;DHT22;2583;50.946;6.954;2022-09-17T02:29:31;11.40;99.90
5130;DHT22;2583;50.946;6.954;2022-09-17T02:31:59;11.40;99.90
5130;DHT22;2583;50.946;6.954;2022-09-17T02:34:27;11.40;99.90
5130;DHT22;2583;50.946;6.954;2022-09-17T02:36:56;11.40;99.90
5130;DHT22;2583;50.946;6.954;2022-09-17T02:39:25;11.40;99.90
5130;DHT22;2583;50.946;6.954;2022-09-17T02:47:47;11.50;99.90
5130;DHT22;2583;50.946;6.954;2022-09-17T02:55:51;11.70;99.90
5130;DHT22;2583;50.946;6.954;2022-09-17T02:58:33;11.60;99.90
5130;DHT22;2583;50.946;6.954;2022-09-17T03:01:08;11.70;99.90
5130;DHT22;2583;50.946;6.954;2022-09-17T03:03:43;11.70;99.90
5130;DHT22;2583;50.946;6.954;2022-09-17T03:06:12;11.50;99.90
5130;DHT22;2583;50.946;6.954;2022-09-17T03:08:41;11.60;99.90
5130;DHT22;2583;50.946;6.954;2022-09-17T03:11:10;11.60;99.90
5130;DHT22;2583;50.946;6.954;2022-09-17T03:13:38;11.60;99.90
5130;DHT22;2583;50.946;6.954;2022-09-17T03:16:05;11.50;99.90
5130;DHT22;2583;50.946;6.954;2022-09-17T03:18:32;11.50;99.90
5130;DHT22;2583;50.946;6.954;2022-09-17T03:20:59;11.60;99.90
5130;DHT22;2583;50.946;6.954;2022-09-17T03:23:26;11.70;99.90
5130;DHT22;2583;50.946;6.954;2022-09-17T03:25:53;11.70;99.90
5130;DHT22;2583;50.946;6.954;2022-09-17T03:28:21;11.70;99.90
5130;DHT22;2583;50.946;6.954;2022-09-17T03:30:48;11.70;99.90
5130;DHT22;2583;50.946;6.954;2022-09-17T03:33:14;11.70;99.90
5130;DHT22;2583;50.946;6.954;2022-09-17T03:35:42;11.60;99.90
5130;DHT22;2583;50.946;6.954;2022-09-17T03:38:10;11.60;99.90
5130;DHT22;2583;50.946;6.954;2022-09-17T03:40:37;11.70;99.90
5130;DHT22;2583;50.946;6.954;2022-09-17T03:43:06;11.70;99.90
5130;DHT22;2583;50.946;6.954;2022-09-17T03:45:33;11.70;99.90
5130;DHT22;2583;50.946;6.954;2022-09-17T03:48:00;11.80;99.90
5130;DHT22;2583;50.946;6.954;2022-09-17T03:50:26;11.80;99.90
5130;DHT22;2583;50.946;6.954;2022-09-17T03:52:53;11.80;99.90
5130;DHT22;2583;50.946;6.954;2022-09-17T03:55:20;11.80;99.90
5130;DHT22;2583;50.946;6.954;2022-09-17T03:57:47;11.80;99.90
5130;DHT22;2583;50.946;6.954;2022-09-17T04:00:14;11.70;99.90
5130;DHT22;2583;50.946;6.954;2022-09-17T04:02:43;11.70;99.90
5130;DHT22;2583;50.946;6.954;2022-09-17T04:05:10;11.70;99.90
5130;DHT22;2583;50.946;6.954;2022-09-17T04:07:39;11.70;99.90
5130;DHT22;2583;50.946;6.954;2022-09-17T04:10:07;11.70;99.90
5130;DHT22;2583;50.946;6.954;2022-09-17T04:12:34;11.80;99.90
5130;DHT22;2583;50.946;6.954;2022-09-17T04:15:00;11.80;99.90
5130;DHT22;2583;50.946;6.954;2022-09-17T04:17:28;11.90;99.90
5130;DHT22;2583;50.946;6.954;2022-09-17T04:19:54;11.90;99.90
5130;DHT22;2583;50.946;6.954;2022-09-17T04:22:21;11.90;99.90
5130;DHT22;2583;50.946;6.954;2022-09-17T04:24:48;11.80;99.90
5130;DHT22;2583;50.946;6.954;2022-09-17T04:27:14;11.80;99.90
5130;DHT22;2583;50.946;6.954;2022-09-17T04:29:41;11.80;99.90
5130;DHT22;2583;50.946;6.954;2022-09-17T04:32:08;11.80;99.90
5130;DHT22;2583;50.946;6.954;2022-09-17T04:34:35;11.80;99.90
5130;DHT22;2583;50.946;6.954;2022-09-17T04:37:02;11.70;99.90
5130;DHT22;2583;50.946;6.954;2022-09-17T04:39:29;11.70;99.90
5130;DHT22;2583;50.946;6.954;2022-09-17T04:41:56;11.80;99.90
5130;DHT22;2583;50.946;6.954;2022-09-17T04:44:22;11.70;99.90
5130;DHT22;2583;50.946;6.954;2022-09-17T04:46:49;11.70;99.90
5130;DHT22;2583;50.946;6.954;2022-09-17T04:49:16;11.80;99.90
5130;DHT22;2583;50.946;6.954;2022-09-17T04:51:43;11.70;99.90
5130;DHT22;2583;50.946;6.954;2022-09-17T04:54:10;11.70;99.90
5130;DHT22;2583;50.946;6.954;2022-09-17T04:56:36;11.60;99.90
5130;DHT22;2583;50.946;6.954;2022-09-17T04:59:03;11.60;99.90
5130;DHT22;2583;50.946;6.954;2022-09-17T05:01:30;11.60;99.90
5130;DHT22;2583;50.946;6.954;2022-09-17T05:03:56;11.60;99.90
5130;DHT22;2583;50.946;6.954;2022-09-17T05:06:23;11.60;99.90
5130;DHT22;2583;50.946;6.954;2022-09-17T05:08:50;11.60;99.90
5130;DHT22;2583;50.946;6.954;2022-09-17T05:11:16;11.60;99.90
5130;DHT22;2583;50.946;6.954;2022-09-17T05:13:43;11.60;99.90
5130;DHT22;2583;50.946;6.954;2022-09-17T05:16:10;11.60;99.90
5130;DHT22;2583;50.946;6.954;2022-09-17T05:18:37;11.50;99.90
5130;DHT22;2583;50.946;6.954;2022-09-17T05:21:04;11.50;99.90
5130;DHT22;2583;50.946;6.954;2022-09-17T05:23:31;11.50;99.90
5130;DHT22;2583;50.946;6.954;2022-09-17T05:25:59;11.50;99.90
5130;DHT22;2583;50.946;6.954;2022-09-17T05:28:26;11.50;99.90
5130;DHT22;2583;50.946;6.954;2022-09-17T05:30:53;11.50;99.90
5130;DHT22;2583;50.946;6.954;2022-09-17T05:33:20;11.50;99.90
5130;DHT22;2583;50.946;6.954;2022-09-17T05:35:47;11.50;99.90
5130;DHT22;2583;50.946;6.954;2022-09-17T05:38:14;11.50;99.90
5130;DHT22;2583;50.946;6.954;2022-09-17T05:40:41;11.50;99.90
5130;DHT22;2583;50.946;6.954;2022-09-17T05:43:08;11.50;99.90
5130;DHT22;2583;50.946;6.954;2022-09-17T05:45:36;11.50;99.90
5130;DHT22;2583;50.946;6.954;2022-09-17T05:48:05;11.50;99.90
5130;DHT22;2583;50.946;6.954;2022-09-17T05:50:32;11.50;99.90
5130;DHT22;2583;50.946;6.954;2022-09-17T05:53:10;11.50;99.90
5130;DHT22;2583;50.946;6.954;2022-09-17T05:55:38;11.50;99.90
5130;DHT22;2583;50.946;6.954;2022-09-17T05:58:16;11.60;99.90
5130;DHT22;2583;50.946;6.954;2022-09-17T06:00:45;11.60;99.90
5130;DHT22;2583;50.946;6.954;2022-09-17T06:03:15;11.70;99.90
5130;DHT22;2583;50.946;6.954;2022-09-17T06:05:42;11.70;99.90
5130;DHT22;2583;50.946;6.954;2022-09-17T06:08:09;11.70;99.90
5130;DHT22;2583;50.946;6.954;2022-09-17T06:10:37;11.70;99.90
5130;DHT22;2583;50.946;6.954;2022-09-17T06:13:04;11.80;99.90
5130;DHT22;2583;50.946;6.954;2022-09-17T06:15:31;11.80;99.90
5130;DHT22;2583;50.946;6.954;2022-09-17T06:17:58;11.90;99.90
5130;DHT22;2583;50.946;6.954;2022-09-17T06:20:25;12.00;99.90
5130;DHT22;2583;50.946;6.954;2022-09-17T06:22:55;12.00;99.90
5130;DHT22;2583;50.946;6.954;2022-09-17T06:25:23;12.20;99.90
5130;DHT22;2583;50.946;6.954;2022-09-17T06:27:50;12.20;99.90
5130;DHT22;2583;50.946;6.954;2022-09-17T06:30:17;12.20;99.90
5130;DHT22;2583;50.946;6.954;2022-09-17T06:32:44;12.40;99.90
5130;DHT22;2583;50.946;6.954;2022-09-17T06:35:11;12.50;99.90
5130;DHT22;2583;50.946;6.954;2022-09-17T06:37:38;12.60;99.90
5130;DHT22;2583;50.946;6.954;2022-09-17T06:40:07;12.70;99.90
5130;DHT22;2583;50.946;6.954;2022-09-17T06:42:34;12.70;99.90
5130;DHT22;2583;50.946;6.954;2022-09-17T06:45:01;12.70;99.90
5130;DHT22;2583;50.946;6.954;2022-09-17T06:47:34;12.70;99.90
5130;DHT22;2583;50.946;6.954;2022-09-17T06:50:01;12.80;99.90
5130;DHT22;2583;50.946;6.954;2022-09-17T06:52:27;12.70;99.90
5130;DHT22;2583;50.946;6.954;2022-09-17T06:54:54;12.70;99.90
5130;DHT22;2583;50.946;6.954;2022-09-17T06:57:21;12.60;99.90
5130;DHT22;2583;50.946;6.954;2022-09-17T06:59:48;12.60;99.90
5130;DHT22;2583;50.946;6.954;2022-09-17T07:02:15;12.60;99.90
5130;DHT22;2583;50.946;6.954;2022-09-17T07:04:42;12.60;99.90
5130;DHT22;2583;50.946;6.954;2022-09-17T07:07:09;12.60;99.90
5130;DHT22;2583;50.946;6.954;2022-09-17T07:09:36;12.60;99.90
5130;DHT22;2583;50.946;6.954;2022-09-17T07:12:06;12.60;99.90
5130;DHT22;2583;50.946;6.954;2022-09-17T07:14:33;12.60;99.90
5130;DHT22;2583;50.946;6.954;2022-09-17T07:17:00;12.70;99.90
5130;DHT22;2583;50.946;6.954;2022-09-17T07:19:27;12.80;99.90
5130;DHT22;2583;50.946;6.954;2022-09-17T07:21:54;12.90;99.90
5130;DHT22;2583;50.946;6.954;2022-09-17T07:24:20;13.10;99.90
5130;DHT22;2583;50.946;6.954;2022-09-17T07:26:48;13.00;99.90
5130;DHT22;2583;50.946;6.954;2022-09-17T07:29:15;13.20;99.90
5130;DHT22;2583;50.946;6.954;2022-09-17T07:31:42;13.20;99.90
5130;DHT22;2583;50.946;6.954;2022-09-17T07:34:09;13.20;99.90
5130;DHT22;2583;50.946;6.954;2022-09-17T07:36:36;13.20;99.90
5130;DHT22;2583;50.946;6.954;2022-09-17T07:39:03;13.20;99.90
5130;DHT22;2583;50.946;6.954;2022-09-17T07:41:30;13.20;99.90
5130;DHT22;2583;50.946;6.954;2022-09-17T07:43:57;13.20;99.90
5130;DHT22;2583;50.946;6.954;2022-09-17T07:46:24;13.30;99.90
5130;DHT22;2583;50.946;6.954;2022-09-17T07:48:51;13.30;99.90
5130;DHT22;2583;50.946;6.954;2022-09-17T07:51:20;13.30;99.90
5130;DHT22;2583;50.946;6.954;2022-09-17T07:53:51;13.20;99.90
5130;DHT22;2583;50.946;6.954;2022-09-17T07:56:18;13.20;99.90
5130;DHT22;2583;50.946;6.954;2022-09-17T07:58:45;13.40;99.90
5130;DHT22;2583;50.946;6.954;2022-09-17T08:01:13;13.50;99.90
5130;DHT22;2583;50.946;6.954;2022-09-17T08:03:51;13.50;99.90
5130;DHT22;2583;50.946;6.954;2022-09-17T08:06:21;13.60;99.90
5130;DHT22;2583;50.946;6.954;2022-09-17T08:08:48;13.70;99.90
5130;DHT22;2583;50.946;6.954;2022-09-17T08:11:22;13.80;99.90
5130;DHT22;2583;50.946;6.954;2022-09-17T08:14:12;14.00;99.90
5130;DHT22;2583;50.946;6.954;2022-09-17T08:16:39;14.10;99.90
5130;DHT22;2583;50.946;6.954;2022-09-17T08:19:07;14.30;99.90
5130;DHT22;2583;50.946;6.954;2022-09-17T08:21:36;14.50;99.90
5130;DHT22;2583;50.946;6.954;2022-09-17T08:24:03;14.60;99.90
5130;DHT22;2583;50.946;6.954;2022-09-17T08:26:30;14.70;96.70
5130;DHT22;2583;50.946;6.954;2022-09-17T08:28:57;14.90;96.70
5130;DHT22;2583;50.946;6.954;2022-09-17T08:31:25;14.90;97.80
5130;DHT22;2583;50.946;6.954;2022-09-17T08:33:53;15.00;96.60
5130;DHT22;2583;50.946;6.954;2022-09-17T08:36:20;15.00;96.50
5130;DHT22;2583;50.946;6.954;2022-09-17T08:38:52;15.00;95.20
5130;DHT22;2583;50.946;6.954;2022-09-17T08:41:41;14.90;96.90
5130;DHT22;2583;50.946;6.954;2022-09-17T08:44:38;14.90;94.90
5130;DHT22;2583;50.946;6.954;2022-09-17T08:47:33;14.90;94.10
5130;DHT22;2583;50.946;6.954;2022-09-17T08:50:04;15.20;91.80
5130;DHT22;2583;50.946;6.954;2022-09-17T09:06:30;15.70;85.70
5130;DHT22;2583;50.946;6.954;2022-09-17T09:09:05;15.70;88.30
5130;DHT22;2583;50.946;6.954;2022-09-17T09:11:35;15.50;85.20
5130;DHT22;2583;50.946;6.954;2022-09-17T09:14:22;15.40;90.40
5130;DHT22;2583;50.946;6.954;2022-09-17T09:16:51;15.40;87.20
5130;DHT22;2583;50.946;6.954;2022-09-17T09:19:24;15.50;87.70
5130;DHT22;2583;50.946;6.954;2022-09-17T09:24:57;15.40;90.80
5130;DHT22;2583;50.946;6.954;2022-09-17T09:27:32;15.40;90.10
5130;DHT22;2583;50.946;6.954;2022-09-17T09:30:03;15.30;89.60
5130;DHT22;2583;50.946;6.954;2022-09-17T09:37:58;15.80;78.30
5130;DHT22;2583;50.946;6.954;2022-09-17T09:43:49;15.40;75.70
5130;DHT22;2583;50.946;6.954;2022-09-17T09:47:13;15.20;75.40
5130;DHT22;2583;50.946;6.954;2022-09-17T09:50:03;15.50;71.40
5130;DHT22;2583;50.946;6.954;2022-09-17T09:55:26;16.20;67.60
5130;DHT22;2583;50.946;6.954;2022-09-17T10:00:42;16.20;63.60
5130;DHT22;2583;50.946;6.954;2022-09-17T10:03:19;15.80;65.90
5130;DHT22;2583;50.946;6.954;2022-09-17T10:05:53;15.90;66.00
5130;DHT22;2583;50.946;6.954;2022-09-17T10:08:21;15.80;66.70
5130;DHT22;2583;50.946;6.954;2022-09-17T10:11:05;15.60;61.10
5130;DHT22;2583;50.946;6.954;2022-09-17T10:13:34;15.70;62.20
5130;DHT22;2583;50.946;6.954;2022-09-17T10:18:47;15.80;62.40
5130;DHT22;2583;50.946;6.954;2022-09-17T10:21:32;15.60;62.70
5130;DHT22;2583;50.946;6.954;2022-09-17T10:24:00;15.70;65.40
5130;DHT22;2583;50.946;6.954;2022-09-17T10:29:02;16.00;56.20
5130;DHT22;2583;50.946;6.954;2022-09-17T10:31:46;16.10;52.20
5130;DHT22;2583;50.946;6.954;2022-09-17T10:34:27;16.20;50.20
5130;DHT22;2583;50.946;6.954;2022-09-17T10:36:54;16.30;49.10
5130;DHT22;2583;50.946;6.954;2022-09-17T10:39:33;16.50;47.70
5130;DHT22;2583;50.946;6.954;2022-09-17T10:42:03;16.50;47.30
5130;DHT22;2583;50.946;6.954;2022-09-17T10:44:34;16.80;46.20
5130;DHT22;2583;50.946;6.954;2022-09-17T10:47:28;17.00;44.60
5130;DHT22;2583;50.946;6.954;2022-09-17T10:52:35;17.10;43.60
5130;DHT22;2583;50.946;6.954;2022-09-17T11:01:01;17.50;46.40
5130;DHT22;2583;50.946;6.954;2022-09-17T11:21:12;17.50;48.50
5130;DHT22;2583;50.946;6.954;2022-09-17T11:26:06;17.30;45.10
5130;DHT22;2583;50.946;6.954;2022-09-17T11:31:33;17.70;45.30
5130;DHT22;2583;50.946;6.954;2022-09-17T11:34:32;17.70;43.40
5130;DHT22;2583;50.946;6.954;2022-09-17T11:37:23;17.50;43.90
5130;DHT22;2583;50.946;6.954;2022-09-17T11:39:59;17.30;44.40
5130;DHT22;2583;50.946;6.954;2022-09-17T11:42:41;17.70;45.80
5130;DHT22;2583;50.946;6.954;2022-09-17T11:45:16;18.00;45.20
5130;DHT22;2583;50.946;6.954;2022-09-17T11:47:51;17.80;44.70
5130;DHT22;2583;50.946;6.954;2022-09-17T11:50:23;17.40;45.00
5130;DHT22;2583;50.946;6.954;2022-09-17T11:53:22;16.80;46.00
5130;DHT22;2583;50.946;6.954;2022-09-17T11:58:50;16.30;51.20
5130;DHT22;2583;50.946;6.954;2022-09-17T12:01:37;15.80;57.20
5130;DHT22;2583;50.946;6.954;2022-09-17T12:10:19;15.50;93.40
5130;DHT22;2583;50.946;6.954;2022-09-17T12:13:01;15.40;99.90
5130;DHT22;2583;50.946;6.954;2022-09-17T12:15:30;15.50;99.90
5130;DHT22;2583;50.946;6.954;2022-09-17T12:18:14;15.50;99.80
5130;DHT22;2583;50.946;6.954;2022-09-17T12:21:01;15.40;97.60
5130;DHT22;2583;50.946;6.954;2022-09-17T12:23:41;15.40;98.30
5130;DHT22;2583;50.946;6.954;2022-09-17T12:29:21;15.60;93.00
5130;DHT22;2583;50.946;6.954;2022-09-17T12:37:30;16.10;80.50
5130;DHT22;2583;50.946;6.954;2022-09-17T12:42:59;15.50;79.20
5130;DHT22;2583;50.946;6.954;2022-09-17T12:45:44;15.50;83.20
5130;DHT22;2583;50.946;6.954;2022-09-17T12:54:10;16.30;70.40
5130;DHT22;2583;50.946;6.954;2022-09-17T12:57:06;16.40;72.30
5130;DHT22;2583;50.946;6.954;2022-09-17T12:59:44;16.40;70.80
5130;DHT22;2583;50.946;6.954;2022-09-17T13:02:16;16.10;78.50
5130;DHT22;2583;50.946;6.954;2022-09-17T13:10:39;15.60;99.90
5130;DHT22;2583;50.946;6.954;2022-09-17T13:13:25;15.30;99.90
5130;DHT22;2583;50.946;6.954;2022-09-17T13:16:12;14.80;99.90
5130;DHT22;2583;50.946;6.954;2022-09-17T13:18:52;14.10;99.90
5130;DHT22;2583;50.946;6.954;2022-09-17T13:21:51;13.50;99.90
5130;DHT22;2583;50.946;6.954;2022-09-17T13:24:22;12.90;99.90
5130;DHT22;2583;50.946;6.954;2022-09-17T13:26:54;12.60;99.90
5130;DHT22;2583;50.946;6.954;2022-09-17T13:40:33;10.50;99.90
5130;DHT22;2583;50.946;6.954;2022-09-17T13:45:32;10.40;99.90
5130;DHT22;2583;50.946;6.954;2022-09-17T13:48:04;10.50;99.90
5130;DHT22;2583;50.946;6.954;2022-09-17T13:50:42;11.10;99.90
5130;DHT22;2583;50.946;6.954;2022-09-17T13:55:58;11.60;99.90
5130;DHT22;2583;50.946;6.954;2022-09-17T13:58:32;12.30;99.90
5130;DHT22;2583;50.946;6.954;2022-09-17T14:13:53;15.00;99.90
5130;DHT22;2583;50.946;6.954;2022-09-17T14:22:17;14.20;99.90
5130;DHT22;2583;50.946;6.954;2022-09-17T14:24:50;13.90;99.90
5130;DHT22;2583;50.946;6.954;2022-09-17T14:30:21;13.80;99.90
5130;DHT22;2583;50.946;6.954;2022-09-17T14:33:02;13.70;99.90
5130;DHT22;2583;50.946;6.954;2022-09-17T14:35:47;13.60;99.90
5130;DHT22;2583;50.946;6.954;2022-09-17T14:38:39;13.50;99.90
5130;DHT22;2583;50.946;6.954;2022-09-17T14:44:02;13.20;99.90
5130;DHT22;2583;50.946;6.954;2022-09-17T14:46:38;13.10;99.90
5130;DHT22;2583;50.946;6.954;2022-09-17T14:49:32;13.10;99.90
5130;DHT22;2583;50.946;6.954;2022-09-17T14:51:59;12.80;99.90
5130;DHT22;2583;50.946;6.954;2022-09-17T14:54:31;12.70;99.90
5130;DHT22;2583;50.946;6.954;2022-09-17T14:57:21;12.80;99.90
5130;DHT22;2583;50.946;6.954;2022-09-17T15:02:42;13.00;99.90
5130;DHT22;2583;50.946;6.954;2022-09-17T15:05:28;13.00;99.90
5130;DHT22;2583;50.946;6.954;2022-09-17T15:08:24;12.80;99.90
5130;DHT22;2583;50.946;6.954;2022-09-17T15:13:35;12.80;99.90
5130;DHT22;2583;50.946;6.954;2022-09-17T15:16:25;12.70;99.90
5130;DHT22;2583;50.946;6.954;2022-09-17T15:19:02;12.70;99.90
5130;DHT22;2583;50.946;6.954;2022-09-17T15:26:53;12.60;99.90
5130;DHT22;2583;50.946;6.954;2022-09-17T15:29:26;12.60;99.90
5130;DHT22;2583;50.946;6.954;2022-09-17T15:31:54;12.50;99.90
5130;DHT22;2583;50.946;6.954;2022-09-17T15:34:21;12.40;99.90
5130;DHT22;2583;50.946;6.954;2022-09-17T15:37:06;12.50;99.90
5130;DHT22;2583;50.946;6.954;2022-09-17T15:39:41;12.50;99.90
5130;DHT22;2583;50.946;6.954;2022-09-17T15:42:29;12.60;99.90
5130;DHT22;2583;50.946;6.954;2022-09-17T15:45:26;12.70;99.90
5130;DHT22;2583;50.946;6.954;2022-09-17T15:47:55;12.80;99.90
5130;DHT22;2583;50.946;6.954;2022-09-17T15:50:31;12.80;99.90
5130;DHT22;2583;50.946;6.954;2022-09-17T15:55:44;12.90;99.90
5130;DHT22;2583;50.946;6.954;2022-09-17T15:58:27;13.10;99.90
5130;DHT22;2583;50.946;6.954;2022-09-17T16:08:54;13.60;99.90
5130;DHT22;2583;50.946;6.954;2022-09-17T16:13:50;13.60;99.90
5130;DHT22;2583;50.946;6.954;2022-09-17T16:16:19;13.50;99.90
5130;DHT22;2583;50.946;6.954;2022-09-17T16:18:47;13.40;99.90
5130;DHT22;2583;50.946;6.954;2022-09-17T16:21:15;13.40;99.90
5130;DHT22;2583;50.946;6.954;2022-09-17T16:23:42;13.40;99.90
5130;DHT22;2583;50.946;6.954;2022-09-17T16:26:13;13.40;99.90
5130;DHT22;2583;50.946;6.954;2022-09-17T16:28:41;13.30;99.90
5130;DHT22;2583;50.946;6.954;2022-09-17T16:31:12;13.30;99.90
5130;DHT22;2583;50.946;6.954;2022-09-17T16:33:39;13.40;99.90
5130;DHT22;2583;50.946;6.954;2022-09-17T16:36:06;13.40;99.90
5130;DHT22;2583;50.946;6.954;2022-09-17T16:38:33;13.50;99.90
5130;DHT22;2583;50.946;6.954;2022-09-17T16:41:04;13.60;99.90
5130;DHT22;2583;50.946;6.954;2022-09-17T16:43:31;13.60;99.90
5130;DHT22;2583;50.946;6.954;2022-09-17T16:46:04;13.50;99.90
5130;DHT22;2583;50.946;6.954;2022-09-17T16:48:32;13.60;99.90
5130;DHT22;2583;50.946;6.954;2022-09-17T16:51:05;13.50;99.90
5130;DHT22;2583;50.946;6.954;2022-09-17T16:53:32;13.50;99.90
5130;DHT22;2583;50.946;6.954;2022-09-17T16:56:00;13.50;99.90
5130;DHT22;2583;50.946;6.954;2022-09-17T16:58:26;13.50;99.90
5130;DHT22;2583;50.946;6.954;2022-09-17T17:00:53;13.50;99.90
5130;DHT22;2583;50.946;6.954;2022-09-17T17:03:20;13.40;99.90
5130;DHT22;2583;50.946;6.954;2022-09-17T17:05:47;13.40;99.90
5130;DHT22;2583;50.946;6.954;2022-09-17T17:08:14;13.30;99.90
5130;DHT22;2583;50.946;6.954;2022-09-17T17:10:41;13.20;99.90
5130;DHT22;2583;50.946;6.954;2022-09-17T17:13:08;13.20;99.90
5130;DHT22;2583;50.946;6.954;2022-09-17T17:15:34;13.20;99.90
5130;DHT22;2583;50.946;6.954;2022-09-17T17:18:01;13.10;99.90
5130;DHT22;2583;50.946;6.954;2022-09-17T17:20:28;13.10;99.90
5130;DHT22;2583;50.946;6.954;2022-09-17T17:22:57;13.10;99.90
5130;DHT22;2583;50.946;6.954;2022-09-17T17:25:24;13.10;99.90
5130;DHT22;2583;50.946;6.954;2022-09-17T17:27:52;13.00;99.90
5130;DHT22;2583;50.946;6.954;2022-09-17T17:30:19;13.00;99.90
5130;DHT22;2583;50.946;6.954;2022-09-17T17:32:49;13.00;99.90
5130;DHT22;2583;50.946;6.954;2022-09-17T17:35:16;13.00;99.90
5130;DHT22;2583;50.946;6.954;2022-09-17T17:37:43;13.00;99.90
5130;DHT22;2583;50.946;6.954;2022-09-17T17:40:10;13.00;99.90
5130;DHT22;2583;50.946;6.954;2022-09-17T17:42:37;13.00;99.90
5130;DHT22;2583;50.946;6.954;2022-09-17T17:45:06;12.90;99.90
5130;DHT22;2583;50.946;6.954;2022-09-17T17:47:33;12.90;99.90
5130;DHT22;2583;50.946;6.954;2022-09-17T17:50:00;12.80;99.90
5130;DHT22;2583;50.946;6.954;2022-09-17T17:52:27;12.80;99.90
5130;DHT22;2583;50.946;6.954;2022-09-17T17:54:54;12.80;99.90
5130;DHT22;2583;50.946;6.954;2022-09-17T17:57:20;12.80;99.90
5130;DHT22;2583;50.946;6.954;2022-09-17T17:59:47;12.80;99.90
5130;DHT22;2583;50.946;6.954;2022-09-17T18:02:14;12.70;99.90
5130;DHT22;2583;50.946;6.954;2022-09-17T18:04:41;12.70;99.90
5130;DHT22;2583;50.946;6.954;2022-09-17T18:07:08;12.70;99.90
5130;DHT22;2583;50.946;6.954;2022-09-17T18:09:35;12.70;99.90
5130;DHT22;2583;50.946;6.954;2022-09-17T18:12:01;12.60;99.90
5130;DHT22;2583;50.946;6.954;2022-09-17T18:14:28;12.70;99.90
5130;DHT22;2583;50.946;6.954;2022-09-17T18:16:55;12.70;99.90
5130;DHT22;2583;50.946;6.954;2022-09-17T18:19:22;12.60;99.90
5130;DHT22;2583;50.946;6.954;2022-09-17T18:21:49;12.70;99.90
5130;DHT22;2583;50.946;6.954;2022-09-17T18:24:16;12.80;99.90
5130;DHT22;2583;50.946;6.954;2022-09-17T18:26:42;12.90;99.90
5130;DHT22;2583;50.946;6.954;2022-09-17T18:29:09;12.90;99.90
5130;DHT22;2583;50.946;6.954;2022-09-17T18:31:37;13.00;99.90
5130;DHT22;2583;50.946;6.954;2022-09-17T18:34:08;13.00;99.90
5130;DHT22;2583;50.946;6.954;2022-09-17T18:36:36;13.10;99.90
5130;DHT22;2583;50.946;6.954;2022-09-17T18:39:06;13.10;99.90
5130;DHT22;2583;50.946;6.954;2022-09-17T18:41:53;13.20;99.90
5130;DHT22;2583;50.946;6.954;2022-09-17T18:44:19;13.10;99.90
5130;DHT22;2583;50.946;6.954;2022-09-17T18:46:47;13.10;99.90
5130;DHT22;2583;50.946;6.954;2022-09-17T18:49:15;13.10;99.90
5130;DHT22;2583;50.946;6.954;2022-09-17T18:51:42;13.10;99.90
5130;DHT22;2583;50.946;6.954;2022-09-17T18:54:10;13.00;99.90
5130;DHT22;2583;50.946;6.954;2022-09-17T18:56:39;13.00;99.90
5130;DHT22;2583;50.946;6.954;2022-09-17T18:59:07;13.00;99.90
5130;DHT22;2583;50.946;6.954;2022-09-17T19:01:34;13.10;99.90
5130;DHT22;2583;50.946;6.954;2022-09-17T19:04:02;13.10;99.90
5130;DHT22;2583;50.946;6.954;2022-09-17T19:06:29;13.10;99.90
5130;DHT22;2583;50.946;6.954;2022-09-17T19:09:01;13.10;99.90
5130;DHT22;2583;50.946;6.954;2022-09-17T19:11:29;13.10;99.90
5130;DHT22;2583;50.946;6.954;2022-09-17T19:13:56;13.10;99.90
5130;DHT22;2583;50.946;6.954;2022-09-17T19:16:23;13.20;99.90
5130;DHT22;2583;50.946;6.954;2022-09-17T19:18:50;13.20;99.90
5130;DHT22;2583;50.946;6.954;2022-09-17T19:21:18;13.20;99.90
5130;DHT22;2583;50.946;6.954;2022-09-17T19:23:48;13.20;99.90
5130;DHT22;2583;50.946;6.954;2022-09-17T19:26:22;13.20;99.90
5130;DHT22;2583;50.946;6.954;2022-09-17T19:28:57;13.20;99.90
5130;DHT22;2583;50.946;6.954;2022-09-17T19:31:25;13.20;99.90
5130;DHT22;2583;50.946;6.954;2022-09-17T19:33:52;13.10;99.90
5130;DHT22;2583;50.946;6.954;2022-09-17T19:36:19;13.20;99.90
5130;DHT22;2583;50.946;6.954;2022-09-17T19:38:47;13.20;99.90
5130;DHT22;2583;50.946;6.954;2022-09-17T19:41:17;13.20;99.90
5130;DHT22;2583;50.946;6.954;2022-09-17T19:43:45;13.20;99.90
5130;DHT22;2583;50.946;6.954;2022-09-17T19:46:16;13.20;99.90
5130;DHT22;2583;50.946;6.954;2022-09-17T19:48:52;13.20;99.90
5130;DHT22;2583;50.946;6.954;2022-09-17T19:51:20;13.20;99.90
5130;DHT22;2583;50.946;6.954;2022-09-17T19:53:48;13.20;99.90
5130;DHT22;2583;50.946;6.954;2022-09-17T19:56:18;13.20;99.90